sensor_id;sensor_type;location;lat;lon;timestamp;P1;durP1;ratioP1;P2;durP2;ratioP2
75059;SDS011;63640;59.264;18.116;2023-09-18T00:00:37;7.35;;;2.30;;
75059;SDS011;63640;59.264;18.116;2023-09-18T00:03:03;4.03;;;1.60;;
75059;SDS011;63640;59.264;18.116;2023-09-18T00:05:29;5.53;;;2.10;;
75059;SDS011;63640;59.264;18.116;2023-09-18T00:07:54;4.90;;;2.00;;
75059;SDS011;63640;59.264;18.116;2023-09-18T00:10:20;5.43;;;1.63;;
75059;SDS011;63640;59.264;18.116;2023-09-18T00:12:45;5.70;;;1.70;;
75059;SDS011;63640;59.264;18.116;2023-09-18T00:15:10;4.55;;;1.55;;
75059;SDS011;63640;59.264;18.116;2023-09-18T00:17:36;4.53;;;1.60;;
75059;SDS011;63640;59.264;18.116;2023-09-18T00:20:02;4.63;;;1.65;;
75059;SDS011;63640;59.264;18.116;2023-09-18T00:22:31;5.28;;;1.67;;
75059;SDS011;63640;59.264;18.116;2023-09-18T00:24:56;5.30;;;1.40;;
75059;SDS011;63640;59.264;18.116;2023-09-18T00:27:22;5.90;;;1.40;;
75059;SDS011;63640;59.264;18.116;2023-09-18T00:29:48;4.35;;;1.33;;
75059;SDS011;63640;59.264;18.116;2023-09-18T00:32:13;3.63;;;1.35;;
75059;SDS011;63640;59.264;18.116;2023-09-18T00:34:39;4.50;;;1.85;;
75059;SDS011;63640;59.264;18.116;2023-09-18T00:37:04;6.32;;;1.73;;
75059;SDS011;63640;59.264;18.116;2023-09-18T00:39:30;6.80;;;1.50;;
75059;SDS011;63640;59.264;18.116;2023-09-18T00:41:56;7.80;;;1.85;;
75059;SDS011;63640;59.264;18.116;2023-09-18T00:44:22;5.85;;;1.30;;
75059;SDS011;63640;59.264;18.116;2023-09-18T00:46:53;4.40;;;1.55;;
75059;SDS011;63640;59.264;18.116;2023-09-18T00:49:20;5.70;;;1.63;;
75059;SDS011;63640;59.264;18.116;2023-09-18T00:51:47;5.70;;;1.88;;
75059;SDS011;63640;59.264;18.116;2023-09-18T00:54:13;5.45;;;1.80;;
75059;SDS011;63640;59.264;18.116;2023-09-18T00:56:41;5.60;;;1.73;;
75059;SDS011;63640;59.264;18.116;2023-09-18T00:59:06;6.10;;;1.60;;
75059;SDS011;63640;59.264;18.116;2023-09-18T01:01:32;4.80;;;1.70;;
75059;SDS011;63640;59.264;18.116;2023-09-18T01:03:57;6.35;;;1.90;;
75059;SDS011;63640;59.264;18.116;2023-09-18T01:06:26;5.43;;;1.50;;
75059;SDS011;63640;59.264;18.116;2023-09-18T01:08:55;4.40;;;1.40;;
75059;SDS011;63640;59.264;18.116;2023-09-18T01:16:32;5.65;;;1.35;;
75059;SDS011;63640;59.264;18.116;2023-09-18T01:19:01;5.53;;;1.60;;
75059;SDS011;63640;59.264;18.116;2023-09-18T01:21:28;4.72;;;1.27;;
75059;SDS011;63640;59.264;18.116;2023-09-18T01:23:54;7.82;;;1.60;;
75059;SDS011;63640;59.264;18.116;2023-09-18T01:26:19;6.93;;;1.85;;
75059;SDS011;63640;59.264;18.116;2023-09-18T01:28:45;4.45;;;1.38;;
75059;SDS011;63640;59.264;18.116;2023-09-18T01:31:10;4.03;;;1.48;;
75059;SDS011;63640;59.264;18.116;2023-09-18T01:33:36;4.07;;;1.40;;
75059;SDS011;63640;59.264;18.116;2023-09-18T01:36:02;5.25;;;1.50;;
75059;SDS011;63640;59.264;18.116;2023-09-18T01:38:28;5.57;;;1.92;;
75059;SDS011;63640;59.264;18.116;2023-09-18T01:40:54;3.40;;;1.38;;
75059;SDS011;63640;59.264;18.116;2023-09-18T01:43:20;5.18;;;1.40;;
75059;SDS011;63640;59.264;18.116;2023-09-18T01:45:45;6.25;;;1.25;;
75059;SDS011;63640;59.264;18.116;2023-09-18T01:48:11;4.60;;;1.42;;
75059;SDS011;63640;59.264;18.116;2023-09-18T01:50:37;5.03;;;1.58;;
75059;SDS011;63640;59.264;18.116;2023-09-18T01:53:05;4.57;;;1.20;;
75059;SDS011;63640;59.264;18.116;2023-09-18T01:55:30;4.63;;;1.40;;
75059;SDS011;63640;59.264;18.116;2023-09-18T01:57:57;4.60;;;1.50;;
75059;SDS011;63640;59.264;18.116;2023-09-18T02:00:23;6.03;;;1.63;;
75059;SDS011;63640;59.264;18.116;2023-09-18T02:02:49;5.47;;;1.80;;
75059;SDS011;63640;59.264;18.116;2023-09-18T02:05:14;3.53;;;1.25;;
75059;SDS011;63640;59.264;18.116;2023-09-18T02:07:40;4.47;;;1.65;;
75059;SDS011;63640;59.264;18.116;2023-09-18T02:10:05;4.68;;;1.50;;
75059;SDS011;63640;59.264;18.116;2023-09-18T02:12:31;3.75;;;1.20;;
75059;SDS011;63640;59.264;18.116;2023-09-18T02:14:57;5.85;;;1.65;;
75059;SDS011;63640;59.264;18.116;2023-09-18T02:17:23;4.90;;;1.52;;
75059;SDS011;63640;59.264;18.116;2023-09-18T02:19:49;4.40;;;1.45;;
75059;SDS011;63640;59.264;18.116;2023-09-18T02:22:15;5.38;;;1.50;;
75059;SDS011;63640;59.264;18.116;2023-09-18T02:24:40;5.00;;;1.70;;
75059;SDS011;63640;59.264;18.116;2023-09-18T02:27:06;3.85;;;1.25;;
75059;SDS011;63640;59.264;18.116;2023-09-18T02:29:31;5.68;;;1.63;;
75059;SDS011;63640;59.264;18.116;2023-09-18T02:31:57;4.95;;;1.65;;
75059;SDS011;63640;59.264;18.116;2023-09-18T02:34:22;7.55;;;1.55;;
75059;SDS011;63640;59.264;18.116;2023-09-18T02:36:48;3.50;;;1.20;;
75059;SDS011;63640;59.264;18.116;2023-09-18T02:39:13;5.03;;;1.52;;
75059;SDS011;63640;59.264;18.116;2023-09-18T02:41:38;4.35;;;1.40;;
75059;SDS011;63640;59.264;18.116;2023-09-18T02:44:04;5.20;;;1.33;;
75059;SDS011;63640;59.264;18.116;2023-09-18T02:46:30;4.30;;;1.33;;
75059;SDS011;63640;59.264;18.116;2023-09-18T02:48:55;4.00;;;1.50;;
75059;SDS011;63640;59.264;18.116;2023-09-18T02:51:21;7.22;;;1.67;;
75059;SDS011;63640;59.264;18.116;2023-09-18T02:53:46;4.90;;;1.48;;
75059;SDS011;63640;59.264;18.116;2023-09-18T02:56:12;4.25;;;1.63;;
75059;SDS011;63640;59.264;18.116;2023-09-18T02:58:38;4.68;;;1.10;;
75059;SDS011;63640;59.264;18.116;2023-09-18T03:01:04;4.28;;;1.38;;
75059;SDS011;63640;59.264;18.116;2023-09-18T03:03:33;6.38;;;1.30;;
75059;SDS011;63640;59.264;18.116;2023-09-18T03:06:02;3.85;;;1.50;;
75059;SDS011;63640;59.264;18.116;2023-09-18T03:08:28;3.75;;;1.40;;
75059;SDS011;63640;59.264;18.116;2023-09-18T03:10:54;3.33;;;1.30;;
75059;SDS011;63640;59.264;18.116;2023-09-18T03:13:20;4.50;;;1.30;;
75059;SDS011;63640;59.264;18.116;2023-09-18T03:15:46;5.03;;;1.50;;
75059;SDS011;63640;59.264;18.116;2023-09-18T03:18:14;4.18;;;1.38;;
75059;SDS011;63640;59.264;18.116;2023-09-18T03:20:40;4.18;;;1.23;;
75059;SDS011;63640;59.264;18.116;2023-09-18T03:23:05;3.25;;;1.25;;
75059;SDS011;63640;59.264;18.116;2023-09-18T03:25:31;4.03;;;1.40;;
75059;SDS011;63640;59.264;18.116;2023-09-18T03:27:57;5.05;;;1.55;;
75059;SDS011;63640;59.264;18.116;2023-09-18T03:30:23;4.30;;;1.33;;
75059;SDS011;63640;59.264;18.116;2023-09-18T03:32:49;4.20;;;1.30;;
75059;SDS011;63640;59.264;18.116;2023-09-18T03:35:15;4.22;;;1.35;;
75059;SDS011;63640;59.264;18.116;2023-09-18T03:37:44;4.80;;;1.30;;
75059;SDS011;63640;59.264;18.116;2023-09-18T03:40:14;8.70;;;1.45;;
75059;SDS011;63640;59.264;18.116;2023-09-18T03:42:41;4.30;;;1.38;;
75059;SDS011;63640;59.264;18.116;2023-09-18T03:45:06;5.07;;;1.30;;
75059;SDS011;63640;59.264;18.116;2023-09-18T03:47:36;4.55;;;1.55;;
75059;SDS011;63640;59.264;18.116;2023-09-18T03:50:08;4.20;;;1.33;;
75059;SDS011;63640;59.264;18.116;2023-09-18T03:52:35;4.88;;;1.40;;
75059;SDS011;63640;59.264;18.116;2023-09-18T03:55:01;5.18;;;1.70;;
75059;SDS011;63640;59.264;18.116;2023-09-18T03:57:26;4.13;;;1.40;;
75059;SDS011;63640;59.264;18.116;2023-09-18T03:59:52;4.45;;;1.65;;
75059;SDS011;63640;59.264;18.116;2023-09-18T04:02:17;6.60;;;1.25;;
75059;SDS011;63640;59.264;18.116;2023-09-18T04:04:43;6.82;;;1.50;;
75059;SDS011;63640;59.264;18.116;2023-09-18T04:07:08;3.50;;;1.20;;
75059;SDS011;63640;59.264;18.116;2023-09-18T04:09:34;4.05;;;1.40;;
75059;SDS011;63640;59.264;18.116;2023-09-18T04:12:00;3.97;;;1.20;;
75059;SDS011;63640;59.264;18.116;2023-09-18T04:14:26;5.13;;;1.42;;
75059;SDS011;63640;59.264;18.116;2023-09-18T04:16:52;3.65;;;1.40;;
75059;SDS011;63640;59.264;18.116;2023-09-18T04:19:17;4.28;;;1.40;;
75059;SDS011;63640;59.264;18.116;2023-09-18T04:21:43;5.53;;;1.40;;
75059;SDS011;63640;59.264;18.116;2023-09-18T04:24:08;5.55;;;1.42;;
75059;SDS011;63640;59.264;18.116;2023-09-18T04:26:34;4.13;;;1.30;;
75059;SDS011;63640;59.264;18.116;2023-09-18T04:29:00;4.25;;;1.40;;
75059;SDS011;63640;59.264;18.116;2023-09-18T04:31:26;5.05;;;1.33;;
75059;SDS011;63640;59.264;18.116;2023-09-18T04:33:52;4.30;;;1.25;;
75059;SDS011;63640;59.264;18.116;2023-09-18T04:36:18;3.78;;;1.20;;
75059;SDS011;63640;59.264;18.116;2023-09-18T04:38:44;4.28;;;1.13;;
75059;SDS011;63640;59.264;18.116;2023-09-18T04:41:09;4.82;;;1.10;;
75059;SDS011;63640;59.264;18.116;2023-09-18T04:43:36;8.23;;;1.40;;
75059;SDS011;63640;59.264;18.116;2023-09-18T04:46:04;3.85;;;1.55;;
75059;SDS011;63640;59.264;18.116;2023-09-18T04:48:33;5.43;;;1.50;;
75059;SDS011;63640;59.264;18.116;2023-09-18T04:50:59;3.65;;;1.40;;
75059;SDS011;63640;59.264;18.116;2023-09-18T04:53:26;4.57;;;1.40;;
75059;SDS011;63640;59.264;18.116;2023-09-18T04:55:52;4.90;;;1.48;;
75059;SDS011;63640;59.264;18.116;2023-09-18T04:58:18;5.13;;;1.45;;
75059;SDS011;63640;59.264;18.116;2023-09-18T05:00:43;6.32;;;1.60;;
75059;SDS011;63640;59.264;18.116;2023-09-18T05:03:09;4.70;;;1.70;;
75059;SDS011;63640;59.264;18.116;2023-09-18T05:05:35;4.32;;;1.45;;
75059;SDS011;63640;59.264;18.116;2023-09-18T05:08:02;4.28;;;1.38;;
75059;SDS011;63640;59.264;18.116;2023-09-18T05:10:28;4.07;;;1.48;;
75059;SDS011;63640;59.264;18.116;2023-09-18T05:12:54;4.15;;;1.42;;
75059;SDS011;63640;59.264;18.116;2023-09-18T05:15:24;5.22;;;1.40;;
75059;SDS011;63640;59.264;18.116;2023-09-18T05:17:51;4.78;;;1.25;;
75059;SDS011;63640;59.264;18.116;2023-09-18T05:20:20;3.55;;;1.20;;
75059;SDS011;63640;59.264;18.116;2023-09-18T05:22:49;6.47;;;1.17;;
75059;SDS011;63640;59.264;18.116;2023-09-18T05:25:15;2.85;;;1.10;;
75059;SDS011;63640;59.264;18.116;2023-09-18T05:27:40;4.18;;;1.20;;
75059;SDS011;63640;59.264;18.116;2023-09-18T05:30:19;7.20;;;2.13;;
75059;SDS011;63640;59.264;18.116;2023-09-18T05:32:46;6.43;;;1.70;;
75059;SDS011;63640;59.264;18.116;2023-09-18T05:35:13;8.70;;;2.03;;
75059;SDS011;63640;59.264;18.116;2023-09-18T05:37:39;7.63;;;1.73;;
75059;SDS011;63640;59.264;18.116;2023-09-18T05:40:06;12.35;;;2.10;;
75059;SDS011;63640;59.264;18.116;2023-09-18T05:42:34;6.53;;;2.13;;
75059;SDS011;63640;59.264;18.116;2023-09-18T05:45:04;5.95;;;1.83;;
75059;SDS011;63640;59.264;18.116;2023-09-18T05:47:33;5.22;;;1.90;;
75059;SDS011;63640;59.264;18.116;2023-09-18T05:50:00;4.80;;;1.50;;
75059;SDS011;63640;59.264;18.116;2023-09-18T05:52:30;7.93;;;1.80;;
75059;SDS011;63640;59.264;18.116;2023-09-18T05:54:56;5.18;;;1.40;;
75059;SDS011;63640;59.264;18.116;2023-09-18T05:57:21;4.63;;;1.30;;
75059;SDS011;63640;59.264;18.116;2023-09-18T05:59:47;7.32;;;1.30;;
75059;SDS011;63640;59.264;18.116;2023-09-18T06:02:13;4.97;;;1.30;;
75059;SDS011;63640;59.264;18.116;2023-09-18T06:04:38;8.07;;;1.40;;
75059;SDS011;63640;59.264;18.116;2023-09-18T06:07:04;7.47;;;1.55;;
75059;SDS011;63640;59.264;18.116;2023-09-18T06:09:29;4.45;;;1.27;;
75059;SDS011;63640;59.264;18.116;2023-09-18T06:11:55;6.15;;;1.13;;
75059;SDS011;63640;59.264;18.116;2023-09-18T06:14:20;6.85;;;1.40;;
75059;SDS011;63640;59.264;18.116;2023-09-18T06:16:46;4.15;;;1.40;;
75059;SDS011;63640;59.264;18.116;2023-09-18T06:19:11;3.58;;;1.30;;
75059;SDS011;63640;59.264;18.116;2023-09-18T06:21:37;3.63;;;1.13;;
75059;SDS011;63640;59.264;18.116;2023-09-18T06:24:03;6.20;;;1.30;;
75059;SDS011;63640;59.264;18.116;2023-09-18T06:26:28;3.63;;;1.20;;
75059;SDS011;63640;59.264;18.116;2023-09-18T06:28:54;6.22;;;1.30;;
75059;SDS011;63640;59.264;18.116;2023-09-18T06:31:20;4.20;;;1.30;;
75059;SDS011;63640;59.264;18.116;2023-09-18T06:33:45;6.22;;;1.13;;
75059;SDS011;63640;59.264;18.116;2023-09-18T06:36:13;4.45;;;1.10;;
75059;SDS011;63640;59.264;18.116;2023-09-18T06:38:38;5.53;;;1.40;;
75059;SDS011;63640;59.264;18.116;2023-09-18T06:41:04;4.35;;;1.15;;
75059;SDS011;63640;59.264;18.116;2023-09-18T06:43:29;4.10;;;1.20;;
75059;SDS011;63640;59.264;18.116;2023-09-18T06:45:55;4.68;;;1.27;;
75059;SDS011;63640;59.264;18.116;2023-09-18T06:48:23;3.47;;;1.13;;
75059;SDS011;63640;59.264;18.116;2023-09-18T06:50:49;3.78;;;1.05;;
75059;SDS011;63640;59.264;18.116;2023-09-18T06:53:14;5.22;;;1.10;;
75059;SDS011;63640;59.264;18.116;2023-09-18T06:55:40;6.00;;;1.00;;
75059;SDS011;63640;59.264;18.116;2023-09-18T06:58:05;3.70;;;1.10;;
75059;SDS011;63640;59.264;18.116;2023-09-18T07:00:30;4.25;;;1.00;;
75059;SDS011;63640;59.264;18.116;2023-09-18T07:02:56;3.30;;;1.00;;
75059;SDS011;63640;59.264;18.116;2023-09-18T07:05:22;4.63;;;1.10;;
75059;SDS011;63640;59.264;18.116;2023-09-18T07:07:47;6.22;;;1.35;;
75059;SDS011;63640;59.264;18.116;2023-09-18T07:10:13;6.30;;;1.30;;
75059;SDS011;63640;59.264;18.116;2023-09-18T07:12:38;5.47;;;1.30;;
75059;SDS011;63640;59.264;18.116;2023-09-18T07:15:04;9.77;;;1.40;;
75059;SDS011;63640;59.264;18.116;2023-09-18T07:17:31;7.32;;;1.67;;
75059;SDS011;63640;59.264;18.116;2023-09-18T07:19:57;6.25;;;1.52;;
75059;SDS011;63640;59.264;18.116;2023-09-18T07:22:24;6.25;;;1.08;;
75059;SDS011;63640;59.264;18.116;2023-09-18T07:24:49;4.57;;;1.13;;
75059;SDS011;63640;59.264;18.116;2023-09-18T07:27:15;2.92;;;0.85;;
75059;SDS011;63640;59.264;18.116;2023-09-18T07:29:40;3.97;;;0.80;;
75059;SDS011;63640;59.264;18.116;2023-09-18T07:32:06;5.07;;;1.10;;
75059;SDS011;63640;59.264;18.116;2023-09-18T07:34:32;3.25;;;0.80;;
75059;SDS011;63640;59.264;18.116;2023-09-18T07:36:58;3.90;;;1.00;;
75059;SDS011;63640;59.264;18.116;2023-09-18T07:39:24;3.42;;;0.98;;
75059;SDS011;63640;59.264;18.116;2023-09-18T07:41:49;3.67;;;0.90;;
75059;SDS011;63640;59.264;18.116;2023-09-18T07:44:21;3.83;;;0.75;;
75059;SDS011;63640;59.264;18.116;2023-09-18T07:46:47;3.05;;;0.90;;
75059;SDS011;63640;59.264;18.116;2023-09-18T07:49:12;2.47;;;0.70;;
75059;SDS011;63640;59.264;18.116;2023-09-18T07:51:39;3.75;;;1.00;;
75059;SDS011;63640;59.264;18.116;2023-09-18T07:54:04;3.38;;;0.80;;
75059;SDS011;63640;59.264;18.116;2023-09-18T07:56:30;2.03;;;0.68;;
75059;SDS011;63640;59.264;18.116;2023-09-18T07:58:58;2.88;;;1.00;;
75059;SDS011;63640;59.264;18.116;2023-09-18T08:01:24;2.97;;;0.88;;
75059;SDS011;63640;59.264;18.116;2023-09-18T08:03:49;3.95;;;0.70;;
75059;SDS011;63640;59.264;18.116;2023-09-18T08:06:15;3.58;;;0.77;;
75059;SDS011;63640;59.264;18.116;2023-09-18T08:08:43;4.15;;;1.20;;
75059;SDS011;63640;59.264;18.116;2023-09-18T08:11:09;4.45;;;0.90;;
75059;SDS011;63640;59.264;18.116;2023-09-18T08:13:34;7.00;;;0.80;;
75059;SDS011;63640;59.264;18.116;2023-09-18T08:16:00;3.33;;;0.80;;
75059;SDS011;63640;59.264;18.116;2023-09-18T08:18:26;3.33;;;0.70;;
75059;SDS011;63640;59.264;18.116;2023-09-18T08:20:52;2.85;;;0.90;;
75059;SDS011;63640;59.264;18.116;2023-09-18T08:23:19;5.20;;;0.80;;
75059;SDS011;63640;59.264;18.116;2023-09-18T08:25:45;3.92;;;0.85;;
75059;SDS011;63640;59.264;18.116;2023-09-18T08:28:12;3.95;;;0.80;;
75059;SDS011;63640;59.264;18.116;2023-09-18T08:30:39;4.45;;;0.98;;
75059;SDS011;63640;59.264;18.116;2023-09-18T08:33:05;2.97;;;0.75;;
75059;SDS011;63640;59.264;18.116;2023-09-18T08:35:31;3.08;;;0.70;;
75059;SDS011;63640;59.264;18.116;2023-09-18T08:37:57;4.75;;;0.98;;
75059;SDS011;63640;59.264;18.116;2023-09-18T08:40:23;4.90;;;0.70;;
75059;SDS011;63640;59.264;18.116;2023-09-18T08:42:48;7.13;;;0.95;;
75059;SDS011;63640;59.264;18.116;2023-09-18T08:45:23;4.95;;;0.73;;
75059;SDS011;63640;59.264;18.116;2023-09-18T08:47:53;3.85;;;0.90;;
75059;SDS011;63640;59.264;18.116;2023-09-18T08:50:19;2.72;;;0.93;;
75059;SDS011;63640;59.264;18.116;2023-09-18T08:52:45;2.15;;;0.70;;
75059;SDS011;63640;59.264;18.116;2023-09-18T08:55:11;3.83;;;0.82;;
75059;SDS011;63640;59.264;18.116;2023-09-18T08:57:36;2.53;;;0.80;;
75059;SDS011;63640;59.264;18.116;2023-09-18T09:00:03;1.95;;;0.57;;
75059;SDS011;63640;59.264;18.116;2023-09-18T09:02:33;4.20;;;1.00;;
75059;SDS011;63640;59.264;18.116;2023-09-18T09:04:59;3.28;;;0.80;;
75059;SDS011;63640;59.264;18.116;2023-09-18T09:07:25;5.13;;;1.33;;
75059;SDS011;63640;59.264;18.116;2023-09-18T09:09:51;3.47;;;0.80;;
75059;SDS011;63640;59.264;18.116;2023-09-18T09:12:21;4.03;;;1.00;;
75059;SDS011;63640;59.264;18.116;2023-09-18T09:15:21;3.38;;;0.85;;
75059;SDS011;63640;59.264;18.116;2023-09-18T09:17:52;2.45;;;0.85;;
75059;SDS011;63640;59.264;18.116;2023-09-18T09:20:27;2.92;;;0.82;;
75059;SDS011;63640;59.264;18.116;2023-09-18T09:22:59;5.50;;;1.00;;
75059;SDS011;63640;59.264;18.116;2023-09-18T09:25:26;3.13;;;0.90;;
75059;SDS011;63640;59.264;18.116;2023-09-18T09:27:54;2.33;;;0.68;;
75059;SDS011;63640;59.264;18.116;2023-09-18T09:30:23;4.18;;;1.00;;
75059;SDS011;63640;59.264;18.116;2023-09-18T09:32:51;4.55;;;0.90;;
75059;SDS011;63640;59.264;18.116;2023-09-18T09:35:21;3.38;;;0.75;;
75059;SDS011;63640;59.264;18.116;2023-09-18T09:37:47;4.43;;;0.90;;
75059;SDS011;63640;59.264;18.116;2023-09-18T09:40:13;4.25;;;0.98;;
75059;SDS011;63640;59.264;18.116;2023-09-18T09:42:42;2.80;;;0.80;;
75059;SDS011;63640;59.264;18.116;2023-09-18T09:45:11;3.53;;;0.80;;
75059;SDS011;63640;59.264;18.116;2023-09-18T09:47:38;3.53;;;0.80;;
75059;SDS011;63640;59.264;18.116;2023-09-18T09:50:07;3.40;;;1.17;;
75059;SDS011;63640;59.264;18.116;2023-09-18T09:52:56;3.78;;;1.10;;
75059;SDS011;63640;59.264;18.116;2023-09-18T09:57:57;5.68;;;1.10;;
75059;SDS011;63640;59.264;18.116;2023-09-18T10:00:29;4.00;;;0.90;;
75059;SDS011;63640;59.264;18.116;2023-09-18T10:03:00;4.95;;;0.85;;
75059;SDS011;63640;59.264;18.116;2023-09-18T10:05:34;3.50;;;0.90;;
75059;SDS011;63640;59.264;18.116;2023-09-18T10:08:23;3.85;;;0.90;;
75059;SDS011;63640;59.264;18.116;2023-09-18T10:10:49;3.40;;;0.85;;
75059;SDS011;63640;59.264;18.116;2023-09-18T10:13:20;2.53;;;0.80;;
75059;SDS011;63640;59.264;18.116;2023-09-18T10:15:52;1.92;;;0.80;;
75059;SDS011;63640;59.264;18.116;2023-09-18T10:18:26;3.65;;;0.80;;
75059;SDS011;63640;59.264;18.116;2023-09-18T10:26:59;4.38;;;1.00;;
75059;SDS011;63640;59.264;18.116;2023-09-18T10:29:26;5.28;;;0.95;;
75059;SDS011;63640;59.264;18.116;2023-09-18T10:31:53;2.08;;;0.70;;
75059;SDS011;63640;59.264;18.116;2023-09-18T10:34:19;1.98;;;0.70;;
75059;SDS011;63640;59.264;18.116;2023-09-18T10:36:50;2.25;;;0.80;;
75059;SDS011;63640;59.264;18.116;2023-09-18T10:39:23;2.55;;;0.70;;
75059;SDS011;63640;59.264;18.116;2023-09-18T10:41:51;3.95;;;0.77;;
75059;SDS011;63640;59.264;18.116;2023-09-18T10:44:18;5.25;;;0.85;;
75059;SDS011;63640;59.264;18.116;2023-09-18T10:46:44;3.40;;;0.85;;
75059;SDS011;63640;59.264;18.116;2023-09-18T10:49:11;3.05;;;0.90;;
75059;SDS011;63640;59.264;18.116;2023-09-18T10:51:37;4.05;;;0.95;;
75059;SDS011;63640;59.264;18.116;2023-09-18T10:54:10;4.75;;;0.80;;
75059;SDS011;63640;59.264;18.116;2023-09-18T10:56:36;1.73;;;0.60;;
75059;SDS011;63640;59.264;18.116;2023-09-18T10:59:02;3.20;;;1.00;;
75059;SDS011;63640;59.264;18.116;2023-09-18T11:01:32;3.95;;;0.80;;
75059;SDS011;63640;59.264;18.116;2023-09-18T11:04:01;5.22;;;1.17;;
75059;SDS011;63640;59.264;18.116;2023-09-18T11:09:23;3.22;;;0.98;;
75059;SDS011;63640;59.264;18.116;2023-09-18T11:23:33;3.45;;;0.65;;
75059;SDS011;63640;59.264;18.116;2023-09-18T11:25:43;4.28;;;0.85;;
75059;SDS011;63640;59.264;18.116;2023-09-18T11:28:14;3.58;;;0.80;;
75059;SDS011;63640;59.264;18.116;2023-09-18T11:30:52;3.05;;;0.90;;
75059;SDS011;63640;59.264;18.116;2023-09-18T11:33:33;2.92;;;0.70;;
75059;SDS011;63640;59.264;18.116;2023-09-18T11:36:03;3.08;;;0.70;;
75059;SDS011;63640;59.264;18.116;2023-09-18T11:38:31;4.03;;;0.90;;
75059;SDS011;63640;59.264;18.116;2023-09-18T11:40:59;2.95;;;0.70;;
75059;SDS011;63640;59.264;18.116;2023-09-18T11:43:26;2.08;;;0.73;;
75059;SDS011;63640;59.264;18.116;2023-09-18T11:45:57;2.15;;;0.80;;
75059;SDS011;63640;59.264;18.116;2023-09-18T11:48:24;4.65;;;0.90;;
75059;SDS011;63640;59.264;18.116;2023-09-18T11:50:52;2.75;;;0.68;;
75059;SDS011;63640;59.264;18.116;2023-09-18T11:53:19;3.92;;;0.80;;
75059;SDS011;63640;59.264;18.116;2023-09-18T11:55:45;2.83;;;0.80;;
75059;SDS011;63640;59.264;18.116;2023-09-18T11:58:11;2.00;;;0.68;;
75059;SDS011;63640;59.264;18.116;2023-09-18T12:00:38;4.55;;;1.00;;
75059;SDS011;63640;59.264;18.116;2023-09-18T12:03:20;4.25;;;1.20;;
75059;SDS011;63640;59.264;18.116;2023-09-18T12:08:19;4.22;;;1.02;;
75059;SDS011;63640;59.264;18.116;2023-09-18T12:10:47;6.82;;;1.02;;
75059;SDS011;63640;59.264;18.116;2023-09-18T12:13:14;2.90;;;0.80;;
75059;SDS011;63640;59.264;18.116;2023-09-18T12:15:40;4.22;;;1.00;;
75059;SDS011;63640;59.264;18.116;2023-09-18T12:18:07;4.07;;;0.75;;
75059;SDS011;63640;59.264;18.116;2023-09-18T12:20:34;4.15;;;0.90;;
75059;SDS011;63640;59.264;18.116;2023-09-18T12:22:59;3.80;;;0.73;;
75059;SDS011;63640;59.264;18.116;2023-09-18T12:25:25;3.83;;;0.93;;
75059;SDS011;63640;59.264;18.116;2023-09-18T12:27:52;3.75;;;0.88;;
75059;SDS011;63640;59.264;18.116;2023-09-18T12:30:18;2.42;;;0.73;;
75059;SDS011;63640;59.264;18.116;2023-09-18T12:32:45;4.70;;;0.90;;
75059;SDS011;63640;59.264;18.116;2023-09-18T12:35:15;4.47;;;1.08;;
75059;SDS011;63640;59.264;18.116;2023-09-18T12:37:43;3.38;;;1.00;;
75059;SDS011;63640;59.264;18.116;2023-09-18T12:42:50;2.75;;;0.80;;
75059;SDS011;63640;59.264;18.116;2023-09-18T12:45:17;3.22;;;0.80;;
75059;SDS011;63640;59.264;18.116;2023-09-18T12:47:43;4.15;;;0.80;;
75059;SDS011;63640;59.264;18.116;2023-09-18T12:50:12;2.05;;;0.80;;
75059;SDS011;63640;59.264;18.116;2023-09-18T12:52:38;3.38;;;0.90;;
75059;SDS011;63640;59.264;18.116;2023-09-18T12:55:03;7.00;;;0.85;;
75059;SDS011;63640;59.264;18.116;2023-09-18T12:57:31;3.88;;;0.82;;
75059;SDS011;63640;59.264;18.116;2023-09-18T12:59:58;4.38;;;0.90;;
75059;SDS011;63640;59.264;18.116;2023-09-18T13:02:23;3.30;;;0.82;;
75059;SDS011;63640;59.264;18.116;2023-09-18T13:04:52;4.82;;;1.02;;
75059;SDS011;63640;59.264;18.116;2023-09-18T13:07:18;4.88;;;0.93;;
75059;SDS011;63640;59.264;18.116;2023-09-18T13:10:00;3.95;;;1.00;;
75059;SDS011;63640;59.264;18.116;2023-09-18T13:15:28;4.43;;;0.85;;
75059;SDS011;63640;59.264;18.116;2023-09-18T13:17:56;2.75;;;0.80;;
75059;SDS011;63640;59.264;18.116;2023-09-18T13:20:26;6.82;;;1.10;;
75059;SDS011;63640;59.264;18.116;2023-09-18T13:22:54;4.05;;;0.80;;
75059;SDS011;63640;59.264;18.116;2023-09-18T13:25:24;3.58;;;0.90;;
75059;SDS011;63640;59.264;18.116;2023-09-18T13:27:52;4.18;;;0.70;;
75059;SDS011;63640;59.264;18.116;2023-09-18T13:30:18;5.05;;;0.82;;
75059;SDS011;63640;59.264;18.116;2023-09-18T13:32:47;3.35;;;0.93;;
75059;SDS011;63640;59.264;18.116;2023-09-18T13:35:17;4.95;;;0.90;;
75059;SDS011;63640;59.264;18.116;2023-09-18T13:37:43;3.20;;;0.75;;
75059;SDS011;63640;59.264;18.116;2023-09-18T13:40:10;3.28;;;0.82;;
75059;SDS011;63640;59.264;18.116;2023-09-18T13:42:36;2.58;;;0.70;;
75059;SDS011;63640;59.264;18.116;2023-09-18T13:45:03;4.47;;;0.80;;
75059;SDS011;63640;59.264;18.116;2023-09-18T13:47:31;3.40;;;0.70;;
75059;SDS011;63640;59.264;18.116;2023-09-18T13:49:57;3.10;;;0.82;;
75059;SDS011;63640;59.264;18.116;2023-09-18T13:52:28;3.97;;;0.82;;
75059;SDS011;63640;59.264;18.116;2023-09-18T13:54:54;3.03;;;0.80;;
75059;SDS011;63640;59.264;18.116;2023-09-18T13:57:20;4.20;;;0.85;;
75059;SDS011;63640;59.264;18.116;2023-09-18T13:59:46;4.60;;;1.00;;
75059;SDS011;63640;59.264;18.116;2023-09-18T14:02:15;6.78;;;1.05;;
75059;SDS011;63640;59.264;18.116;2023-09-18T14:04:41;4.35;;;1.00;;
75059;SDS011;63640;59.264;18.116;2023-09-18T14:07:06;3.42;;;0.80;;
75059;SDS011;63640;59.264;18.116;2023-09-18T14:09:33;4.53;;;0.90;;
75059;SDS011;63640;59.264;18.116;2023-09-18T14:11:59;2.88;;;0.80;;
75059;SDS011;63640;59.264;18.116;2023-09-18T14:14:25;5.03;;;0.88;;
75059;SDS011;63640;59.264;18.116;2023-09-18T14:16:51;3.63;;;0.90;;
75059;SDS011;63640;59.264;18.116;2023-09-18T14:19:16;4.43;;;1.02;;
75059;SDS011;63640;59.264;18.116;2023-09-18T14:21:42;3.58;;;0.95;;
75059;SDS011;63640;59.264;18.116;2023-09-18T14:24:08;5.68;;;1.02;;
75059;SDS011;63640;59.264;18.116;2023-09-18T14:26:34;3.83;;;0.73;;
75059;SDS011;63640;59.264;18.116;2023-09-18T14:31:32;3.85;;;1.08;;
75059;SDS011;63640;59.264;18.116;2023-09-18T14:33:57;3.83;;;0.90;;
75059;SDS011;63640;59.264;18.116;2023-09-18T14:36:24;3.85;;;0.77;;
75059;SDS011;63640;59.264;18.116;2023-09-18T14:38:49;2.05;;;0.70;;
75059;SDS011;63640;59.264;18.116;2023-09-18T14:41:15;5.35;;;1.25;;
75059;SDS011;63640;59.264;18.116;2023-09-18T14:43:42;3.80;;;1.08;;
75059;SDS011;63640;59.264;18.116;2023-09-18T14:46:07;3.85;;;1.00;;
75059;SDS011;63640;59.264;18.116;2023-09-18T14:48:33;4.05;;;1.08;;
75059;SDS011;63640;59.264;18.116;2023-09-18T14:50:59;4.05;;;1.25;;
75059;SDS011;63640;59.264;18.116;2023-09-18T14:53:25;4.80;;;0.95;;
75059;SDS011;63640;59.264;18.116;2023-09-18T14:55:51;5.47;;;1.25;;
75059;SDS011;63640;59.264;18.116;2023-09-18T14:58:20;3.83;;;1.02;;
75059;SDS011;63640;59.264;18.116;2023-09-18T15:00:48;3.58;;;0.82;;
75059;SDS011;63640;59.264;18.116;2023-09-18T15:03:14;4.10;;;1.02;;
75059;SDS011;63640;59.264;18.116;2023-09-18T15:05:39;3.40;;;1.00;;
75059;SDS011;63640;59.264;18.116;2023-09-18T15:08:06;4.00;;;0.93;;
75059;SDS011;63640;59.264;18.116;2023-09-18T15:10:32;4.30;;;1.00;;